Terminal Aerodrome Forecast
Issued by NWS

Home | Current Version | Previous Version | Text Only | Print | Product List | Glossary On
Versions: 1 2 3 4 5 6 7 8 9 10 11 12 13 14 15 16 17 18 19 20
000
FTUS44 KLZK 301953 AAA
TAFHOT
TAF AMD
KHOT 301953Z 3020/3118 VRB04KT P6SM VCTS FEW015 SCT030CB SCT250
      TEMPO 3020/3024 VRB15G35KT 2SM TSRA BR BKN030CB OVC100
     FM310100 23004KT P6SM SCT040 SCT100
     FM310900 23002KT P6SM FEW008 SCT015
      TEMPO 3111/3114 5SM BR BKN015
     FM311500 21005KT P6SM SCT020 BKN035=

USA.gov is the U.S. government's official web portal to all federal, state and local government web resources and services.